Time;durP1;ratioP1;P1;durP2;ratioP2;P2;SDS_P1;SDS_P2;PMS_P1;PMS_P2;Temp;Humidity;BMP_temperature;BMP_pressure;BME280_temperature;BME280_humidity;BME280_pressure;Samples;Min_cycle;Max_cycle;Signal;HPM_P1;HPM_P2
2023/06/27 00:02:14;;;;;;;3.07;1.50;;;;;;;;;;5096399;28;20050;-61
2023/06/27 00:04:41;;;;;;;2.47;0.93;;;;;;;;;;5096873;28;20429;-62
2023/06/27 00:07:10;;;;;;;0.93;0.57;;;;;;;;;;5087612;28;20566;-62
2023/06/27 00:09:38;;;;;;;1.90;1.50;;;;;;;;;;5087368;28;20272;-61
2023/06/27 00:12:05;;;;;;;5.40;2.07;;;;;;;;;;5087494;28;20043;-62
2023/06/27 00:14:33;;;;;;;3.77;1.93;;;;;;;;;;5100836;28;20087;-61
2023/06/27 00:17:00;;;;;;;5.20;2.27;;;;;;;;;;5112987;28;20037;-62
2023/06/27 00:19:30;;;;;;;2.83;1.23;;;;;;;;;;5112669;28;20169;-61
2023/06/27 00:21:59;;;;;;;1.53;1.00;;;;;;;;;;5113013;28;20015;-62
2023/06/27 00:24:27;;;;;;;10.87;1.80;;;;;;;;;;5111009;28;20036;-61
2023/06/27 00:26:54;;;;;;;2.57;1.53;;;;;;;;;;5107640;28;20024;-61
2023/06/27 00:29:24;;;;;;;1.10;0.70;;;;;;;;;;5106756;28;20470;-61
2023/06/27 00:31:51;;;;;;;2.00;1.00;;;;;;;;;;5107587;28;20038;-62
2023/06/27 00:34:25;;;;;;;14.03;1.10;;;;;;;;;;5106775;28;20104;-62
2023/06/27 00:36:55;;;;;;;1.15;0.80;;;;;;;;;;5112360;28;20478;-62
2023/06/27 00:39:29;;;;;;;9.03;1.33;;;;;;;;;;5112771;28;20024;-61
2023/06/27 00:42:29;;;;;;;8.52;1.33;;;;;;;;;;5112679;28;20028;-62
2023/06/27 00:45:02;;;;;;;3.27;0.93;;;;;;;;;;5091365;28;20055;-61
2023/06/27 00:47:32;;;;;;;3.80;1.00;;;;;;;;;;5096220;28;20459;-61
2023/06/27 00:50:02;;;;;;;6.47;1.17;;;;;;;;;;5086011;28;20035;-61
2023/06/27 00:52:35;;;;;;;2.07;0.60;;;;;;;;;;5066760;28;20101;-61
2023/06/27 00:55:10;;;;;;;0.77;0.50;;;;;;;;;;5066866;28;20028;-61
2023/06/27 00:57:49;;;;;;;;;;;;;;;;;;;;;
2023/06/27 01:00:24;;;;;;;3.60;1.17;;;;;;;;;;5100476;28;20497;-61
2023/06/27 01:05:56;;;;;;;0.75;0.35;;;;;;;;;;5152400;22;20443;-62
2023/06/27 01:08:52;;;;;;;1.33;0.50;;;;;;;;;;5031536;28;20040;-62
2023/06/27 01:11:23;;;;;;;2.00;0.70;;;;;;;;;;5013536;28;20124;-61
2023/06/27 01:13:50;;;;;;;1.50;0.57;;;;;;;;;;5031858;28;20029;-62
2023/06/27 01:16:19;;;;;;;0.60;0.50;;;;;;;;;;5030616;28;20025;-61
2023/06/27 01:18:47;;;;;;;0.83;0.53;;;;;;;;;;5026516;28;20022;-62
2023/06/27 01:21:20;;;;;;;1.93;0.87;;;;;;;;;;5026399;28;20043;-62
2023/06/27 01:24:03;;;;;;;12.17;1.33;;;;;;;;;;5026002;28;20033;-62
2023/06/27 01:26:35;;;;;;;1.80;0.70;;;;;;;;;;5027869;28;20509;-62
2023/06/27 01:29:19;;;;;;;16.03;1.03;;;;;;;;;;5030174;28;20048;-62
2023/06/27 01:31:50;;;;;;;1.57;0.80;;;;;;;;;;5031973;28;20195;-62
2023/06/27 01:34:21;;;;;;;4.30;0.77;;;;;;;;;;5031651;28;20553;-62
2023/06/27 01:36:57;;;;;;;12.23;1.03;;;;;;;;;;5031756;28;20026;-62
2023/06/27 01:39:30;;;;;;;0.87;0.50;;;;;;;;;;5028654;28;20049;-62
2023/06/27 01:42:09;;;;;;;0.47;0.30;;;;;;;;;;5028572;28;20497;-62
2023/06/27 01:44:43;;;;;;;2.33;0.97;;;;;;;;;;5029978;28;20369;-62
2023/06/27 01:47:10;;;;;;;2.70;0.70;;;;;;;;;;5030046;28;20030;-62
2023/06/27 01:49:40;;;;;;;1.43;0.90;;;;;;;;;;5032730;28;20022;-62
2023/06/27 01:52:10;;;;;;;6.67;1.10;;;;;;;;;;5035027;28;20072;-62
2023/06/27 01:54:38;;;;;;;0.93;0.50;;;;;;;;;;5035093;28;20026;-62
2023/06/27 01:57:05;;;;;;;1.80;0.93;;;;;;;;;;5034942;28;20032;-61
2023/06/27 01:59:36;;;;;;;2.07;1.03;;;;;;;;;;5035147;28;20026;-61
2023/06/27 02:02:03;;;;;;;9.47;2.80;;;;;;;;;;5031549;28;20060;-62
2023/06/27 02:04:31;;;;;;;12.93;2.57;;;;;;;;;;5029739;28;20031;-61
2023/06/27 02:07:22;;;;;;;4.10;1.40;;;;;;;;;;5028946;28;20076;-62
2023/06/27 02:09:51;;;;;;;4.00;1.30;;;;;;;;;;5028832;28;20069;-61
2023/06/27 02:12:19;;;;;;;2.00;1.00;;;;;;;;;;5032979;28;20375;-61
2023/06/27 02:14:57;;;;;;;0.30;0.30;;;;;;;;;;5034548;28;20076;-61
2023/06/27 02:17:27;;;;;;;3.10;1.27;;;;;;;;;;5034613;28;20034;-61
2023/06/27 02:19:54;;;;;;;2.30;1.23;;;;;;;;;;5034663;28;20496;-61
2023/06/27 02:22:21;;;;;;;2.80;1.57;;;;;;;;;;5034654;28;20052;-61
2023/06/27 02:24:48;;;;;;;2.10;1.03;;;;;;;;;;5030419;28;20132;-61
2023/06/27 02:27:15;;;;;;;4.57;0.93;;;;;;;;;;5028651;28;20034;-61
2023/06/27 02:29:42;;;;;;;2.80;1.00;;;;;;;;;;5029289;28;20026;-61
2023/06/27 02:32:16;;;;;;;0.80;0.60;;;;;;;;;;5028563;28;20049;-61
2023/06/27 02:34:46;;;;;;;16.53;2.00;;;;;;;;;;5032672;28;20022;-61
2023/06/27 02:37:16;;;;;;;18.87;1.73;;;;;;;;;;5034369;28;20100;-61
2023/06/27 02:39:43;;;;;;;2.50;1.07;;;;;;;;;;5034183;28;20503;-61
2023/06/27 02:42:10;;;;;;;2.27;0.87;;;;;;;;;;5034154;28;20045;-61
2023/06/27 02:44:37;;;;;;;3.97;1.43;;;;;;;;;;5034290;28;20056;-61
2023/06/27 02:47:04;;;;;;;2.83;1.27;;;;;;;;;;5029871;28;20100;-61
2023/06/27 02:49:31;;;;;;;3.50;1.77;;;;;;;;;;5028976;28;20025;-61
2023/06/27 02:51:58;;;;;;;5.43;1.57;;;;;;;;;;5028642;28;20025;-61
2023/06/27 02:54:25;;;;;;;5.37;1.30;;;;;;;;;;5028163;28;20379;-61
2023/06/27 02:57:04;;;;;;;1.90;0.83;;;;;;;;;;5031728;28;20487;-62
2023/06/27 02:59:34;;;;;;;2.83;1.00;;;;;;;;;;5016277;28;20415;-61
2023/06/27 03:02:04;;;;;;;3.00;1.27;;;;;;;;;;5033165;28;20037;-62
2023/06/27 03:04:34;;;;;;;8.27;1.33;;;;;;;;;;5015940;28;20032;-61
2023/06/27 03:07:05;;;;;;;2.33;1.00;;;;;;;;;;5033539;28;20045;-61
2023/06/27 03:09:35;;;;;;;1.23;0.97;;;;;;;;;;5029616;28;20033;-61
2023/06/27 03:12:08;;;;;;;2.30;0.77;;;;;;;;;;5024872;28;20060;-59
2023/06/27 03:14:39;;;;;;;7.20;2.03;;;;;;;;;;5027536;28;20030;-59
2023/06/27 03:17:28;;;;;;;2.10;1.10;;;;;;;;;;5028028;28;20541;-60
2023/06/27 03:19:56;;;;;;;2.10;0.93;;;;;;;;;;5011473;28;20392;-59
2023/06/27 03:22:23;;;;;;;5.30;2.07;;;;;;;;;;5013436;28;20033;-59
2023/06/27 03:24:54;;;;;;;8.13;1.17;;;;;;;;;;5013546;28;20026;-59
2023/06/27 03:27:23;;;;;;;18.93;3.83;;;;;;;;;;5013451;28;20026;-59
2023/06/27 03:29:54;;;;;;;7.80;3.20;;;;;;;;;;5012949;28;20037;-59
2023/06/27 03:32:27;;;;;;;5.50;1.93;;;;;;;;;;5008280;28;20022;-60
2023/06/27 03:34:58;;;;;;;2.83;1.10;;;;;;;;;;5008099;28;20504;-59
2023/06/27 03:37:26;;;;;;;4.17;1.77;;;;;;;;;;5007851;28;20120;-60
2023/06/27 03:39:56;;;;;;;3.83;1.50;;;;;;;;;;5007650;28;20037;-59
2023/06/27 03:42:28;;;;;;;6.60;1.03;;;;;;;;;;5012909;28;20033;-59
2023/06/27 03:45:08;;;;;;;4.10;1.47;;;;;;;;;;5013157;28;20026;-59
2023/06/27 03:47:35;;;;;;;4.17;1.37;;;;;;;;;;5012218;28;20022;-62
2023/06/27 03:50:03;;;;;;;1.77;1.23;;;;;;;;;;5032162;28;20104;-59
2023/06/27 03:52:43;;;;;;;1.53;0.97;;;;;;;;;;5013979;28;20040;-59
2023/06/27 03:55:18;;;;;;;9.23;1.73;;;;;;;;;;5027519;28;20033;-59
2023/06/27 03:57:46;;;;;;;3.00;1.10;;;;;;;;;;5026448;28;20150;-59
2023/06/27 04:00:26;;;;;;;2.73;1.20;;;;;;;;;;5026879;28;20519;-59
2023/06/27 04:02:54;;;;;;;2.40;1.10;;;;;;;;;;5027971;28;20527;-59
2023/06/27 04:05:25;;;;;;;23.70;1.53;;;;;;;;;;5031664;28;20480;-59
2023/06/27 04:07:56;;;;;;;1.40;0.83;;;;;;;;;;5031469;28;20495;-59
2023/06/27 04:10:30;;;;;;;10.30;1.40;;;;;;;;;;5032374;28;20034;-59
2023/06/27 04:13:09;;;;;;;1.63;0.83;;;;;;;;;;5031553;28;20113;-60
2023/06/27 04:15:42;;;;;;;1.50;1.03;;;;;;;;;;5030017;28;20476;-59
2023/06/27 04:18:15;;;;;;;5.13;2.07;;;;;;;;;;5019716;28;21773;-59
2023/06/27 04:23:46;;;;;;;0.77;0.60;;;;;;;;;;5070181;28;20386;-59
2023/06/27 04:26:17;;;;;;;0.93;0.77;;;;;;;;;;5079076;28;20048;-59
2023/06/27 04:29:31;;;;;;;;;;;;;;;;;;;;;
2023/06/27 04:32:00;;;;;;;2.73;1.17;;;;;;;;;;5085233;28;20043;-58
2023/06/27 04:34:33;;;;;;;3.37;1.73;;;;;;;;;;5084742;28;20129;-59
2023/06/27 04:37:00;;;;;;;2.63;1.37;;;;;;;;;;5079735;28;20032;-59
2023/06/27 04:39:28;;;;;;;2.67;1.33;;;;;;;;;;5079196;28;20033;-58
2023/06/27 04:41:56;;;;;;;3.13;1.00;;;;;;;;;;5066777;28;20016;-58
2023/06/27 04:44:29;;;;;;;2.95;1.00;;;;;;;;;;5070775;28;20036;-58
2023/06/27 04:46:58;;;;;;;4.13;1.23;;;;;;;;;;5083170;28;20028;-59
2023/06/27 04:49:25;;;;;;;3.83;1.20;;;;;;;;;;5091881;28;20024;-58
2023/06/27 04:51:53;;;;;;;1.77;1.10;;;;;;;;;;5074870;28;20040;-58
2023/06/27 04:54:24;;;;;;;11.57;1.87;;;;;;;;;;5071915;28;20100;-61
2023/06/27 04:57:00;;;;;;;2.77;1.50;;;;;;;;;;5077764;28;20097;-58
2023/06/27 04:59:42;;;;;;;3.30;1.03;;;;;;;;;;5086635;28;20501;-58
2023/06/27 05:02:35;;;;;;;2.43;0.83;;;;;;;;;;5069581;28;20029;-58
2023/06/27 05:05:33;;;;;;;8.38;1.48;;;;;;;;;;5060218;28;20397;-58
2023/06/27 05:08:24;;;;;;;1.20;0.80;;;;;;;;;;5067090;28;20479;-58
2023/06/27 05:10:52;;;;;;;1.77;0.97;;;;;;;;;;5071551;28;20032;-58
2023/06/27 05:13:28;;;;;;;8.30;1.40;;;;;;;;;;5074984;28;20036;-58
2023/06/27 05:15:54;;;;;;;1.23;0.73;;;;;;;;;;5092275;28;20020;-61
2023/06/27 05:18:25;;;;;;;2.23;1.00;;;;;;;;;;5088144;28;20032;-59
2023/06/27 05:20:52;;;;;;;3.40;1.20;;;;;;;;;;5090634;28;20043;-59
2023/06/27 05:23:21;;;;;;;3.73;1.00;;;;;;;;;;5083352;28;20033;-59
2023/06/27 05:25:50;;;;;;;1.83;1.10;;;;;;;;;;5070448;28;20056;-59
2023/06/27 05:28:39;;;;;;;1.17;0.73;;;;;;;;;;5091705;28;20099;-59
2023/06/27 05:31:08;;;;;;;4.33;1.37;;;;;;;;;;5079556;28;20034;-59
2023/06/27 05:33:35;;;;;;;1.93;0.90;;;;;;;;;;5076597;28;20078;-59
2023/06/27 05:36:28;;;;;;;2.83;1.40;;;;;;;;;;5075399;28;20074;-59
2023/06/27 05:39:10;;;;;;;1.53;0.70;;;;;;;;;;5012962;28;20405;-59
2023/06/27 05:42:04;;;;;;;;;;;;;;;;;;;;;
2023/06/27 05:44:40;;;;;;;3.53;1.30;;;;;;;;;;5070329;28;20043;-59
2023/06/27 05:47:31;;;;;;;11.17;1.27;;;;;;;;;;5076437;28;20029;-59
2023/06/27 05:50:14;;;;;;;1.33;0.90;;;;;;;;;;5070343;28;20029;-59
2023/06/27 05:52:44;;;;;;;4.73;1.03;;;;;;;;;;5069568;28;20433;-59
2023/06/27 05:55:25;;;;;;;1.33;0.73;;;;;;;;;;5074999;28;20059;-60
2023/06/27 05:57:58;;;;;;;7.53;2.10;;;;;;;;;;5075100;28;20559;-59
2023/06/27 06:00:26;;;;;;;2.57;1.00;;;;;;;;;;5074770;28;20037;-59
2023/06/27 06:02:53;;;;;;;2.00;1.00;;;;;;;;;;5072574;28;20457;-59
2023/06/27 06:05:20;;;;;;;4.50;0.97;;;;;;;;;;5069655;28;20021;-59
2023/06/27 06:07:47;;;;;;;4.10;1.60;;;;;;;;;;5069741;28;20035;-60
2023/06/27 06:10:14;;;;;;;1.67;1.07;;;;;;;;;;5069819;28;20024;-60
2023/06/27 06:12:53;;;;;;;2.60;1.13;;;;;;;;;;5071036;28;20050;-59
2023/06/27 06:15:23;;;;;;;3.67;0.97;;;;;;;;;;5057137;28;20036;-59
2023/06/27 06:17:50;;;;;;;2.93;1.10;;;;;;;;;;5073069;28;20375;-59
2023/06/27 06:20:35;;;;;;;2.13;1.17;;;;;;;;;;5074028;28;20029;-59
2023/06/27 06:23:16;;;;;;;2.80;1.33;;;;;;;;;;5075092;28;20090;-59
2023/06/27 06:25:43;;;;;;;0.67;0.47;;;;;;;;;;5071960;28;20225;-59
2023/06/27 06:28:11;;;;;;;0.80;0.57;;;;;;;;;;5069294;28;20127;-59
2023/06/27 06:30:47;;;;;;;7.80;1.23;;;;;;;;;;5074110;28;20069;-59
2023/06/27 06:33:14;;;;;;;6.33;2.13;;;;;;;;;;5088849;28;20028;-59
2023/06/27 06:35:47;;;;;;;1.00;0.80;;;;;;;;;;5091643;28;20035;-59
2023/06/27 06:38:36;;;;;;;3.77;1.47;;;;;;;;;;5095205;28;20409;-60
2023/06/27 06:41:03;;;;;;;2.63;1.10;;;;;;;;;;5094668;28;20067;-59
2023/06/27 06:43:31;;;;;;;0.90;0.60;;;;;;;;;;5094029;28;20529;-59
2023/06/27 06:45:58;;;;;;;6.50;1.60;;;;;;;;;;5094460;28;20505;-59
2023/06/27 06:48:26;;;;;;;2.63;0.93;;;;;;;;;;5090951;28;20028;-59
2023/06/27 06:50:53;;;;;;;25.57;1.53;;;;;;;;;;5089347;28;20111;-59
2023/06/27 06:53:20;;;;;;;4.07;1.30;;;;;;;;;;5088572;28;20027;-59
2023/06/27 06:55:48;;;;;;;1.37;0.90;;;;;;;;;;5088926;28;20508;-60
2023/06/27 06:58:17;;;;;;;1.00;0.80;;;;;;;;;;5091633;28;20027;-59
2023/06/27 07:00:44;;;;;;;5.20;1.47;;;;;;;;;;5094121;28;20032;-59
2023/06/27 07:03:11;;;;;;;3.10;1.40;;;;;;;;;;5093649;28;20025;-60
2023/06/27 07:05:41;;;;;;;1.17;0.63;;;;;;;;;;5094011;28;20020;-60
2023/06/27 07:08:09;;;;;;;2.83;1.10;;;;;;;;;;5093637;28;20024;-59
2023/06/27 07:10:37;;;;;;;0.67;0.50;;;;;;;;;;5091365;28;20457;-59
2023/06/27 07:13:05;;;;;;;3.07;1.10;;;;;;;;;;5088256;28;20080;-59
2023/06/27 07:15:34;;;;;;;2.47;1.03;;;;;;;;;;5088624;28;20051;-59
2023/06/27 07:18:01;;;;;;;3.20;1.03;;;;;;;;;;5087743;28;20020;-59
2023/06/27 07:20:28;;;;;;;2.37;1.33;;;;;;;;;;5090820;28;20064;-59
2023/06/27 07:22:55;;;;;;;2.40;1.00;;;;;;;;;;5093238;28;20101;-59
2023/06/27 07:25:22;;;;;;;0.40;0.40;;;;;;;;;;5092935;28;20531;-59
2023/06/27 07:27:49;;;;;;;1.27;0.97;;;;;;;;;;5093429;28;20059;-59
2023/06/27 07:30:16;;;;;;;1.53;0.83;;;;;;;;;;5088857;28;20070;-59
2023/06/27 07:32:43;;;;;;;13.87;1.60;;;;;;;;;;5077567;28;20547;-59
2023/06/27 07:35:11;;;;;;;1.10;0.80;;;;;;;;;;5088134;28;20024;-59
2023/06/27 07:37:40;;;;;;;4.00;0.90;;;;;;;;;;5088388;28;20055;-59
2023/06/27 07:40:08;;;;;;;2.70;0.63;;;;;;;;;;5087600;28;20024;-59
2023/06/27 07:42:37;;;;;;;0.73;0.60;;;;;;;;;;5083844;28;20027;-59
2023/06/27 07:45:05;;;;;;;1.37;0.70;;;;;;;;;;5072685;28;20082;-59
2023/06/27 07:47:33;;;;;;;18.30;1.90;;;;;;;;;;5072619;28;20107;-59
2023/06/27 07:50:02;;;;;;;1.60;0.70;;;;;;;;;;5087227;28;20107;-59
2023/06/27 07:52:30;;;;;;;4.83;1.30;;;;;;;;;;5093497;28;20528;-59
2023/06/27 07:54:58;;;;;;;1.87;0.87;;;;;;;;;;5091205;28;20115;-59
2023/06/27 07:57:26;;;;;;;7.47;2.53;;;;;;;;;;5087661;28;20020;-59
2023/06/27 07:59:54;;;;;;;3.60;1.77;;;;;;;;;;5087414;28;20036;-59
2023/06/27 08:02:22;;;;;;;1.13;0.70;;;;;;;;;;5087941;28;20565;-59
2023/06/27 08:04:49;;;;;;;6.50;1.67;;;;;;;;;;5089046;28;20077;-59
2023/06/27 08:07:16;;;;;;;3.67;1.77;;;;;;;;;;5092729;28;20016;-59
2023/06/27 08:09:43;;;;;;;1.50;0.90;;;;;;;;;;5092602;28;20040;-59
2023/06/27 08:12:10;;;;;;;3.80;1.73;;;;;;;;;;5092664;28;20095;-59
2023/06/27 08:14:37;;;;;;;2.27;1.33;;;;;;;;;;5092474;28;20077;-59
2023/06/27 08:17:04;;;;;;;2.37;1.30;;;;;;;;;;5091300;28;20417;-59
2023/06/27 08:19:31;;;;;;;3.87;1.43;;;;;;;;;;5087542;28;20489;-59
2023/06/27 08:21:58;;;;;;;2.63;1.30;;;;;;;;;;5087079;28;20028;-59
2023/06/27 08:24:24;;;;;;;3.80;1.23;;;;;;;;;;5087533;28;20175;-59
2023/06/27 08:26:54;;;;;;;2.83;1.63;;;;;;;;;;5087737;28;20028;-59
2023/06/27 08:29:23;;;;;;;1.47;0.90;;;;;;;;;;5092565;28;20032;-59
2023/06/27 08:31:58;;;;;;;2.50;1.07;;;;;;;;;;5075072;28;20474;-59
2023/06/27 08:34:25;;;;;;;1.30;0.60;;;;;;;;;;5087870;28;20042;-59
2023/06/27 08:36:52;;;;;;;4.23;1.27;;;;;;;;;;5092541;28;20055;-59
2023/06/27 08:39:19;;;;;;;1.63;1.13;;;;;;;;;;5091429;28;20028;-59
2023/06/27 08:41:48;;;;;;;0.90;0.50;;;;;;;;;;5087184;28;20378;-59
2023/06/27 08:44:15;;;;;;;1.97;1.37;;;;;;;;;;5087199;28;20537;-59
2023/06/27 08:46:44;;;;;;;4.83;1.40;;;;;;;;;;5086968;28;20043;-59
2023/06/27 08:49:14;;;;;;;1.03;0.93;;;;;;;;;;5087081;28;20102;-59
2023/06/27 08:51:44;;;;;;;1.70;0.90;;;;;;;;;;5094087;28;20318;-59
2023/06/27 08:54:19;;;;;;;1.80;0.97;;;;;;;;;;5096746;28;20020;-59
2023/06/27 08:56:46;;;;;;;2.90;1.10;;;;;;;;;;5096294;28;20130;-59
2023/06/27 08:59:14;;;;;;;2.17;1.27;;;;;;;;;;5095825;28;20497;-59
2023/06/27 09:01:42;;;;;;;2.90;1.10;;;;;;;;;;5095752;28;20024;-59
2023/06/27 09:04:10;;;;;;;2.80;1.37;;;;;;;;;;5090926;28;20043;-59
2023/06/27 09:06:40;;;;;;;2.90;1.00;;;;;;;;;;5091182;28;20031;-59
2023/06/27 09:09:07;;;;;;;0.87;0.70;;;;;;;;;;5090747;28;20111;-59
2023/06/27 09:11:34;;;;;;;7.30;1.23;;;;;;;;;;5091165;28;20024;-59
2023/06/27 09:14:02;;;;;;;1.40;1.10;;;;;;;;;;5096043;28;20564;-59
2023/06/27 09:16:29;;;;;;;2.43;1.53;;;;;;;;;;5094332;28;20050;-59
2023/06/27 09:18:56;;;;;;;3.00;1.33;;;;;;;;;;5091286;28;20107;-59
2023/06/27 09:21:23;;;;;;;2.03;1.33;;;;;;;;;;5095636;28;20032;-59
2023/06/27 09:23:50;;;;;;;1.60;0.77;;;;;;;;;;5095677;28;20046;-59
2023/06/27 09:26:17;;;;;;;1.47;0.83;;;;;;;;;;5080433;28;20027;-58
2023/06/27 09:28:45;;;;;;;2.23;1.07;;;;;;;;;;5070809;28;20036;-59
2023/06/27 09:31:13;;;;;;;3.43;1.53;;;;;;;;;;5080042;28;20028;-59
2023/06/27 09:33:44;;;;;;;7.80;0.90;;;;;;;;;;5090484;28;20028;-59
2023/06/27 09:36:12;;;;;;;0.70;0.70;;;;;;;;;;5086990;28;20036;-58
2023/06/27 09:38:38;;;;;;;1.77;1.20;;;;;;;;;;5075438;28;20024;-58
2023/06/27 09:41:06;;;;;;;5.80;1.37;;;;;;;;;;5083350;28;20032;-59
2023/06/27 09:43:36;;;;;;;0.97;0.77;;;;;;;;;;5095777;28;20490;-58
2023/06/27 09:46:04;;;;;;;2.50;1.37;;;;;;;;;;5095478;28;20054;-59
2023/06/27 09:48:32;;;;;;;4.80;1.30;;;;;;;;;;5090108;28;20104;-59
2023/06/27 09:51:00;;;;;;;2.63;1.00;;;;;;;;;;5083778;28;20024;-59
2023/06/27 09:53:30;;;;;;;5.87;1.30;;;;;;;;;;5069714;28;20524;-60
2023/06/27 09:56:00;;;;;;;3.43;1.17;;;;;;;;;;5084689;28;20075;-58
2023/06/27 09:58:28;;;;;;;11.13;1.40;;;;;;;;;;5094938;28;20059;-59
2023/06/27 10:00:56;;;;;;;1.47;0.97;;;;;;;;;;5095470;28;20482;-60
2023/06/27 10:03:24;;;;;;;1.43;0.83;;;;;;;;;;5094181;28;20028;-59
2023/06/27 10:05:51;;;;;;;2.40;1.37;;;;;;;;;;5074681;28;20104;-59
2023/06/27 10:08:19;;;;;;;5.27;1.23;;;;;;;;;;5074912;28;20051;-59
2023/06/27 10:10:45;;;;;;;3.13;1.77;;;;;;;;;;5069824;28;20028;-58
2023/06/27 10:13:13;;;;;;;1.23;0.67;;;;;;;;;;5069831;28;20082;-59
2023/06/27 10:15:40;;;;;;;4.73;1.40;;;;;;;;;;5080608;28;20474;-58
2023/06/27 10:18:07;;;;;;;3.10;1.47;;;;;;;;;;5089810;28;20023;-59
2023/06/27 10:20:34;;;;;;;2.07;0.70;;;;;;;;;;5093698;28;20035;-58
2023/06/27 10:23:02;;;;;;;2.43;1.27;;;;;;;;;;5094632;28;20028;-59
2023/06/27 10:25:29;;;;;;;2.90;1.30;;;;;;;;;;5094945;28;20044;-58
2023/06/27 10:28:15;;;;;;;5.33;1.00;;;;;;;;;;5094555;28;20071;-58
2023/06/27 10:30:46;;;;;;;0.87;0.67;;;;;;;;;;5087165;28;20402;-58
2023/06/27 10:33:29;;;;;;;1.80;0.80;;;;;;;;;;5069287;28;20471;-59
2023/06/27 10:36:01;;;;;;;2.37;1.00;;;;;;;;;;5069467;28;20471;-59
2023/06/27 10:38:35;;;;;;;1.53;1.13;;;;;;;;;;5070270;28;20036;-59
2023/06/27 10:41:09;;;;;;;2.13;1.40;;;;;;;;;;5089089;28;20050;-59
2023/06/27 10:43:49;;;;;;;1.38;0.95;;;;;;;;;;5094490;28;20024;-59
2023/06/27 10:46:21;;;;;;;4.00;1.93;;;;;;;;;;5094225;28;20036;-58
2023/06/27 10:48:54;;;;;;;1.00;0.77;;;;;;;;;;5094212;28;20017;-58
2023/06/27 10:51:25;;;;;;;3.07;1.43;;;;;;;;;;5093761;28;20031;-58
2023/06/27 10:54:11;;;;;;;1.93;0.83;;;;;;;;;;5092743;28;20375;-59
2023/06/27 10:56:39;;;;;;;1.00;0.67;;;;;;;;;;5088709;28;20508;-59
2023/06/27 10:59:11;;;;;;;0.93;0.77;;;;;;;;;;5089156;28;20016;-58
2023/06/27 11:01:57;;;;;;;0.97;0.73;;;;;;;;;;5086243;28;20109;-58
2023/06/27 11:04:25;;;;;;;5.53;1.63;;;;;;;;;;5060430;28;20036;-58
2023/06/27 11:07:01;;;;;;;2.90;1.37;;;;;;;;;;5073711;28;20513;-58
2023/06/27 11:09:29;;;;;;;2.43;1.23;;;;;;;;;;5073791;28;20059;-59
2023/06/27 11:12:16;;;;;;;1.77;1.37;;;;;;;;;;5078144;28;20119;-59
2023/06/27 11:14:46;;;;;;;2.73;1.30;;;;;;;;;;5093017;28;20022;-59
2023/06/27 11:17:13;;;;;;;1.70;1.13;;;;;;;;;;5082798;28;20136;-58
2023/06/27 11:19:42;;;;;;;1.47;0.83;;;;;;;;;;5068332;28;20032;-59
2023/06/27 11:22:09;;;;;;;3.97;1.40;;;;;;;;;;5068237;28;20036;-58
2023/06/27 11:24:37;;;;;;;3.03;1.30;;;;;;;;;;5067968;28;20524;-59
2023/06/27 11:27:06;;;;;;;3.47;1.13;;;;;;;;;;5077501;28;20032;-59
2023/06/27 11:29:34;;;;;;;1.20;0.93;;;;;;;;;;5093328;28;20085;-59
2023/06/27 11:32:01;;;;;;;1.53;1.03;;;;;;;;;;5074696;28;20556;-58
2023/06/27 11:34:28;;;;;;;14.90;1.40;;;;;;;;;;5073351;28;20024;-59
2023/06/27 11:36:56;;;;;;;1.97;1.03;;;;;;;;;;5073283;28;20032;-58
2023/06/27 11:39:23;;;;;;;16.90;1.33;;;;;;;;;;5070016;28;20062;-58
2023/06/27 11:41:54;;;;;;;3.90;1.33;;;;;;;;;;5067317;28;20370;-59
2023/06/27 11:44:21;;;;;;;10.13;1.33;;;;;;;;;;5067880;28;20036;-59
2023/06/27 11:47:06;;;;;;;2.90;1.40;;;;;;;;;;5067780;28;20055;-58
2023/06/27 11:49:35;;;;;;;9.25;1.90;;;;;;;;;;5070544;28;20419;-59
2023/06/27 11:52:02;;;;;;;1.70;1.27;;;;;;;;;;5072611;28;20037;-58
2023/06/27 11:54:29;;;;;;;3.00;1.43;;;;;;;;;;5072860;28;20047;-58
2023/06/27 11:57:02;;;;;;;1.50;1.00;;;;;;;;;;5072753;28;20123;-59
2023/06/27 11:59:32;;;;;;;0.77;0.63;;;;;;;;;;5072756;28;20028;-59
2023/06/27 12:02:00;;;;;;;1.37;0.97;;;;;;;;;;5069038;28;20532;-59
2023/06/27 12:04:27;;;;;;;21.30;1.40;;;;;;;;;;5067610;28;20024;-59
2023/06/27 12:06:54;;;;;;;3.63;1.50;;;;;;;;;;5066904;28;20031;-59
2023/06/27 12:09:22;;;;;;;18.87;1.27;;;;;;;;;;5067396;28;20391;-58
2023/06/27 12:11:53;;;;;;;2.70;1.37;;;;;;;;;;5070145;28;20478;-59
2023/06/27 12:14:23;;;;;;;3.47;1.47;;;;;;;;;;5072199;28;20159;-59
2023/06/27 12:16:50;;;;;;;4.50;1.60;;;;;;;;;;5072622;28;20536;-59
2023/06/27 12:19:19;;;;;;;2.47;1.60;;;;;;;;;;5072194;28;20056;-58
2023/06/27 12:21:46;;;;;;;3.23;1.67;;;;;;;;;;5079797;28;20038;-59
2023/06/27 12:24:13;;;;;;;3.30;1.77;;;;;;;;;;5089550;28;20032;-59
2023/06/27 12:26:40;;;;;;;11.13;2.53;;;;;;;;;;5087526;28;20103;-58
2023/06/27 12:29:08;;;;;;;1.43;1.13;;;;;;;;;;5087598;28;20016;-58
2023/06/27 12:31:38;;;;;;;4.17;1.47;;;;;;;;;;5078792;28;20379;-58
2023/06/27 12:34:05;;;;;;;1.73;0.90;;;;;;;;;;5090065;28;20024;-58
2023/06/27 12:36:33;;;;;;;5.40;1.60;;;;;;;;;;5092516;28;20081;-60
2023/06/27 12:39:00;;;;;;;15.37;1.37;;;;;;;;;;5092003;28;20493;-59
2023/06/27 12:41:28;;;;;;;1.73;1.23;;;;;;;;;;5092451;28;20505;-59
2023/06/27 12:43:55;;;;;;;2.63;1.57;;;;;;;;;;5092053;28;20021;-59
2023/06/27 12:46:22;;;;;;;15.97;2.23;;;;;;;;;;5089636;28;20497;-58
2023/06/27 12:48:49;;;;;;;3.67;1.30;;;;;;;;;;5087249;28;20028;-58
2023/06/27 12:51:16;;;;;;;1.00;0.90;;;;;;;;;;5087253;28;20379;-58
2023/06/27 12:53:44;;;;;;;2.67;1.73;;;;;;;;;;5086799;28;20039;-59
2023/06/27 12:56:12;;;;;;;2.27;1.43;;;;;;;;;;5088623;28;20493;-59
2023/06/27 12:58:39;;;;;;;2.73;1.70;;;;;;;;;;5092281;28;20088;-58
2023/06/27 13:01:06;;;;;;;16.17;1.93;;;;;;;;;;5071995;28;20068;-58
2023/06/27 13:03:34;;;;;;;8.77;2.77;;;;;;;;;;5072008;28;20021;-58
2023/06/27 13:06:00;;;;;;;4.43;1.67;;;;;;;;;;5071996;28;20029;-58
2023/06/27 13:08:27;;;;;;;2.80;1.87;;;;;;;;;;5069733;28;20028;-59
2023/06/27 13:10:54;;;;;;;6.07;1.93;;;;;;;;;;5066420;28;20100;-59
2023/06/27 13:13:21;;;;;;;8.57;2.50;;;;;;;;;;5066626;28;20024;-58
2023/06/27 13:15:48;;;;;;;4.00;1.60;;;;;;;;;;5083348;28;20165;-59
2023/06/27 13:18:15;;;;;;;2.03;1.20;;;;;;;;;;5086413;28;20020;-58
2023/06/27 13:20:45;;;;;;;6.30;1.80;;;;;;;;;;5071632;28;20487;-58
2023/06/27 13:23:12;;;;;;;3.97;1.60;;;;;;;;;;5071503;28;20039;-58
2023/06/27 13:25:41;;;;;;;7.10;2.57;;;;;;;;;;5071457;28;20032;-59
2023/06/27 13:28:09;;;;;;;3.23;1.83;;;;;;;;;;5071468;28;20039;-58
2023/06/27 13:30:36;;;;;;;4.40;1.63;;;;;;;;;;5082565;28;20032;-58
2023/06/27 13:33:04;;;;;;;7.03;1.70;;;;;;;;;;5069674;28;20382;-58
2023/06/27 13:35:32;;;;;;;5.77;2.57;;;;;;;;;;5066641;28;20070;-59
2023/06/27 13:37:59;;;;;;;9.60;2.23;;;;;;;;;;5068941;28;20510;-59
2023/06/27 13:40:26;;;;;;;4.47;2.03;;;;;;;;;;5071008;28;20036;-58
2023/06/27 13:42:53;;;;;;;5.07;2.17;;;;;;;;;;5075028;28;20108;-59
2023/06/27 13:45:20;;;;;;;6.40;2.37;;;;;;;;;;5088422;28;20028;-58
2023/06/27 13:47:47;;;;;;;7.40;1.93;;;;;;;;;;5095408;28;20056;-58
2023/06/27 13:50:14;;;;;;;6.97;2.03;;;;;;;;;;5095473;28;20031;-59
2023/06/27 13:52:41;;;;;;;16.83;1.93;;;;;;;;;;5094292;28;20036;-59
2023/06/27 13:55:08;;;;;;;4.57;2.03;;;;;;;;;;5090088;28;20042;-59
2023/06/27 13:57:34;;;;;;;3.67;1.77;;;;;;;;;;5090348;28;20475;-59
2023/06/27 14:00:01;;;;;;;3.17;1.67;;;;;;;;;;5079029;28;20107;-59
2023/06/27 14:02:28;;;;;;;3.90;2.00;;;;;;;;;;5070078;28;20020;-59
2023/06/27 14:04:55;;;;;;;3.43;1.83;;;;;;;;;;5082868;28;20435;-59
2023/06/27 14:07:23;;;;;;;6.17;2.63;;;;;;;;;;5094996;28;20036;-59
2023/06/27 14:09:49;;;;;;;8.23;2.07;;;;;;;;;;5094599;28;20032;-59
2023/06/27 14:12:17;;;;;;;4.10;1.33;;;;;;;;;;5095184;28;20099;-59
2023/06/27 14:14:46;;;;;;;5.80;1.67;;;;;;;;;;5094579;28;20379;-60
2023/06/27 14:17:13;;;;;;;4.47;1.97;;;;;;;;;;5089433;28;20047;-60
2023/06/27 14:19:41;;;;;;;4.87;1.80;;;;;;;;;;5071022;28;20263;-61
2023/06/27 14:22:08;;;;;;;3.17;1.53;;;;;;;;;;5069337;28;20494;-61
2023/06/27 14:24:35;;;;;;;4.17;2.03;;;;;;;;;;5069007;28;20505;-60
2023/06/27 14:27:02;;;;;;;3.33;1.57;;;;;;;;;;5074498;28;20021;-60
2023/06/27 14:29:28;;;;;;;8.17;1.90;;;;;;;;;;5090860;28;20024;-60
2023/06/27 14:31:55;;;;;;;4.93;1.77;;;;;;;;;;5076573;28;20017;-60
2023/06/27 14:34:22;;;;;;;5.47;1.50;;;;;;;;;;5074329;28;20379;-60
2023/06/27 14:36:52;;;;;;;1.53;1.07;;;;;;;;;;5074188;28;20031;-60
2023/06/27 14:39:22;;;;;;;7.43;2.20;;;;;;;;;;5068905;28;20066;-59
2023/06/27 14:41:49;;;;;;;4.80;1.33;;;;;;;;;;5073606;28;20027;-60
2023/06/27 14:44:16;;;;;;;2.20;1.33;;;;;;;;;;5089274;28;20024;-59
2023/06/27 14:46:42;;;;;;;7.27;1.83;;;;;;;;;;5084181;28;20021;-59
2023/06/27 14:49:09;;;;;;;2.20;1.20;;;;;;;;;;5071864;28;20109;-59
2023/06/27 14:51:36;;;;;;;3.33;1.13;;;;;;;;;;5073950;28;20029;-59
2023/06/27 14:54:04;;;;;;;7.40;2.40;;;;;;;;;;5073287;28;20028;-59
2023/06/27 14:56:31;;;;;;;3.13;1.40;;;;;;;;;;5080849;28;20482;-59
2023/06/27 14:58:57;;;;;;;17.80;1.83;;;;;;;;;;5073818;28;20064;-59
2023/06/27 15:01:24;;;;;;;1.73;1.10;;;;;;;;;;5069986;28;20044;-59
2023/06/27 15:03:51;;;;;;;8.73;1.90;;;;;;;;;;5068264;28;20028;-61
2023/06/27 15:06:18;;;;;;;3.40;1.80;;;;;;;;;;5068134;28;20379;-60
2023/06/27 15:08:45;;;;;;;4.00;1.37;;;;;;;;;;5068714;28;20482;-59
2023/06/27 15:11:12;;;;;;;2.53;1.60;;;;;;;;;;5072041;28;20108;-60